sensor_id;sensor_type;location;lat;lon;timestamp;temperature;humidity
7214;DHT22;3648;50.614;13.830;2022-12-07T00:00:51;2.80;1.00
7214;DHT22;3648;50.614;13.830;2022-12-07T00:03:18;2.90;1.00
7214;DHT22;3648;50.614;13.830;2022-12-07T00:05:45;2.90;1.00
7214;DHT22;3648;50.614;13.830;2022-12-07T00:08:12;2.90;1.00
7214;DHT22;3648;50.614;13.830;2022-12-07T00:10:40;2.90;1.00
7214;DHT22;3648;50.614;13.830;2022-12-07T00:13:07;2.90;1.00
7214;DHT22;3648;50.614;13.830;2022-12-07T00:15:34;2.90;1.00
7214;DHT22;3648;50.614;13.830;2022-12-07T00:18:02;2.90;1.00
7214;DHT22;3648;50.614;13.830;2022-12-07T00:20:29;2.90;1.00
7214;DHT22;3648;50.614;13.830;2022-12-07T00:22:56;2.90;1.00
7214;DHT22;3648;50.614;13.830;2022-12-07T00:25:23;2.90;1.00
7214;DHT22;3648;50.614;13.830;2022-12-07T00:27:52;2.90;1.00
7214;DHT22;3648;50.614;13.830;2022-12-07T00:30:19;2.90;1.00
7214;DHT22;3648;50.614;13.830;2022-12-07T00:32:46;2.90;1.00
7214;DHT22;3648;50.614;13.830;2022-12-07T00:35:13;2.90;1.00
7214;DHT22;3648;50.614;13.830;2022-12-07T00:37:40;2.90;1.00
7214;DHT22;3648;50.614;13.830;2022-12-07T00:40:07;2.90;1.00
7214;DHT22;3648;50.614;13.830;2022-12-07T00:42:35;2.80;1.00
7214;DHT22;3648;50.614;13.830;2022-12-07T00:45:04;2.80;1.00
7214;DHT22;3648;50.614;13.830;2022-12-07T00:47:31;2.70;1.00
7214;DHT22;3648;50.614;13.830;2022-12-07T00:49:58;2.70;1.00
7214;DHT22;3648;50.614;13.830;2022-12-07T00:52:25;2.80;1.00
7214;DHT22;3648;50.614;13.830;2022-12-07T00:54:52;2.80;1.00
7214;DHT22;3648;50.614;13.830;2022-12-07T00:57:19;2.70;1.00
7214;DHT22;3648;50.614;13.830;2022-12-07T00:59:46;2.70;1.00
7214;DHT22;3648;50.614;13.830;2022-12-07T01:02:15;2.70;1.00
7214;DHT22;3648;50.614;13.830;2022-12-07T01:04:42;2.70;1.00
7214;DHT22;3648;50.614;13.830;2022-12-07T01:07:09;2.70;1.00
7214;DHT22;3648;50.614;13.830;2022-12-07T01:09:36;2.70;1.00
7214;DHT22;3648;50.614;13.830;2022-12-07T01:12:04;2.70;1.00
7214;DHT22;3648;50.614;13.830;2022-12-07T01:14:31;2.80;1.00
7214;DHT22;3648;50.614;13.830;2022-12-07T01:16:57;2.80;1.00
7214;DHT22;3648;50.614;13.830;2022-12-07T01:19:26;2.70;1.00
7214;DHT22;3648;50.614;13.830;2022-12-07T01:21:53;2.70;1.00
7214;DHT22;3648;50.614;13.830;2022-12-07T01:24:20;2.70;1.00
7214;DHT22;3648;50.614;13.830;2022-12-07T01:26:49;2.70;1.00
7214;DHT22;3648;50.614;13.830;2022-12-07T01:29:15;2.70;1.00
7214;DHT22;3648;50.614;13.830;2022-12-07T01:31:42;2.70;1.00
7214;DHT22;3648;50.614;13.830;2022-12-07T01:34:10;2.70;1.00
7214;DHT22;3648;50.614;13.830;2022-12-07T01:36:38;2.70;1.00
7214;DHT22;3648;50.614;13.830;2022-12-07T01:39:06;2.70;1.00
7214;DHT22;3648;50.614;13.830;2022-12-07T01:41:36;2.60;1.00
7214;DHT22;3648;50.614;13.830;2022-12-07T01:44:11;2.60;1.00
7214;DHT22;3648;50.614;13.830;2022-12-07T01:46:40;2.60;1.00
7214;DHT22;3648;50.614;13.830;2022-12-07T01:49:10;2.60;1.00
7214;DHT22;3648;50.614;13.830;2022-12-07T01:51:40;2.60;1.00
7214;DHT22;3648;50.614;13.830;2022-12-07T01:54:08;2.60;1.00
7214;DHT22;3648;50.614;13.830;2022-12-07T01:56:37;2.50;1.00
7214;DHT22;3648;50.614;13.830;2022-12-07T01:59:05;2.50;1.00
7214;DHT22;3648;50.614;13.830;2022-12-07T02:01:32;2.50;1.00
7214;DHT22;3648;50.614;13.830;2022-12-07T02:03:59;2.50;1.00
7214;DHT22;3648;50.614;13.830;2022-12-07T02:06:26;2.40;1.00
7214;DHT22;3648;50.614;13.830;2022-12-07T02:08:55;2.40;1.00
7214;DHT22;3648;50.614;13.830;2022-12-07T02:11:22;2.40;1.00
7214;DHT22;3648;50.614;13.830;2022-12-07T02:13:49;2.40;1.00
7214;DHT22;3648;50.614;13.830;2022-12-07T02:16:25;2.40;1.00
7214;DHT22;3648;50.614;13.830;2022-12-07T02:19:05;2.40;1.00
7214;DHT22;3648;50.614;13.830;2022-12-07T02:21:40;2.40;1.00
7214;DHT22;3648;50.614;13.830;2022-12-07T02:24:28;2.40;1.00
7214;DHT22;3648;50.614;13.830;2022-12-07T02:27:21;2.40;1.00
7214;DHT22;3648;50.614;13.830;2022-12-07T02:29:58;2.40;1.00
7214;DHT22;3648;50.614;13.830;2022-12-07T02:32:34;2.40;1.00
7214;DHT22;3648;50.614;13.830;2022-12-07T02:35:06;2.50;1.00
7214;DHT22;3648;50.614;13.830;2022-12-07T02:37:38;2.40;1.00
7214;DHT22;3648;50.614;13.830;2022-12-07T02:40:11;2.40;1.00
7214;DHT22;3648;50.614;13.830;2022-12-07T02:42:43;2.40;1.00
7214;DHT22;3648;50.614;13.830;2022-12-07T02:45:17;2.40;1.00
7214;DHT22;3648;50.614;13.830;2022-12-07T02:47:47;2.40;1.00
7214;DHT22;3648;50.614;13.830;2022-12-07T02:50:17;2.40;1.00
7214;DHT22;3648;50.614;13.830;2022-12-07T02:52:45;2.40;1.00
7214;DHT22;3648;50.614;13.830;2022-12-07T02:55:13;2.40;1.00
7214;DHT22;3648;50.614;13.830;2022-12-07T02:57:58;2.30;1.00
7214;DHT22;3648;50.614;13.830;2022-12-07T03:00:43;2.30;1.00
7214;DHT22;3648;50.614;13.830;2022-12-07T03:03:13;2.40;1.00
7214;DHT22;3648;50.614;13.830;2022-12-07T03:05:54;2.30;1.00
7214;DHT22;3648;50.614;13.830;2022-12-07T03:08:31;2.30;1.00
7214;DHT22;3648;50.614;13.830;2022-12-07T03:11:02;2.30;1.00
7214;DHT22;3648;50.614;13.830;2022-12-07T03:13:34;2.30;1.00
7214;DHT22;3648;50.614;13.830;2022-12-07T03:16:09;2.20;1.00
7214;DHT22;3648;50.614;13.830;2022-12-07T03:18:40;2.30;1.00
7214;DHT22;3648;50.614;13.830;2022-12-07T03:21:11;2.20;1.00
7214;DHT22;3648;50.614;13.830;2022-12-07T03:23:42;2.20;1.00
7214;DHT22;3648;50.614;13.830;2022-12-07T03:26:12;2.20;1.00
7214;DHT22;3648;50.614;13.830;2022-12-07T03:28:44;2.20;1.00
7214;DHT22;3648;50.614;13.830;2022-12-07T03:31:16;2.20;1.00
7214;DHT22;3648;50.614;13.830;2022-12-07T03:33:49;2.20;1.00
7214;DHT22;3648;50.614;13.830;2022-12-07T03:36:23;2.20;1.00
7214;DHT22;3648;50.614;13.830;2022-12-07T03:38:57;2.20;1.00
7214;DHT22;3648;50.614;13.830;2022-12-07T03:41:26;2.20;1.00
7214;DHT22;3648;50.614;13.830;2022-12-07T03:43:54;2.20;1.00
7214;DHT22;3648;50.614;13.830;2022-12-07T03:46:30;2.20;1.00
7214;DHT22;3648;50.614;13.830;2022-12-07T03:49:07;2.20;1.00
7214;DHT22;3648;50.614;13.830;2022-12-07T03:51:40;2.20;1.00
7214;DHT22;3648;50.614;13.830;2022-12-07T03:54:14;2.20;1.00
7214;DHT22;3648;50.614;13.830;2022-12-07T03:56:43;2.20;1.00
7214;DHT22;3648;50.614;13.830;2022-12-07T03:59:11;2.20;1.00
7214;DHT22;3648;50.614;13.830;2022-12-07T04:01:43;2.10;1.00
7214;DHT22;3648;50.614;13.830;2022-12-07T04:04:10;2.10;1.00
7214;DHT22;3648;50.614;13.830;2022-12-07T04:06:37;2.00;1.00
7214;DHT22;3648;50.614;13.830;2022-12-07T04:09:04;1.90;1.00
7214;DHT22;3648;50.614;13.830;2022-12-07T04:11:31;1.90;1.00
7214;DHT22;3648;50.614;13.830;2022-12-07T04:13:58;1.90;1.00
7214;DHT22;3648;50.614;13.830;2022-12-07T04:16:44;1.80;1.00
7214;DHT22;3648;50.614;13.830;2022-12-07T04:19:11;1.80;1.00
7214;DHT22;3648;50.614;13.830;2022-12-07T04:21:38;1.70;1.00
7214;DHT22;3648;50.614;13.830;2022-12-07T04:24:05;1.70;1.00
7214;DHT22;3648;50.614;13.830;2022-12-07T04:26:32;1.70;1.00
7214;DHT22;3648;50.614;13.830;2022-12-07T04:28:59;1.60;1.00
7214;DHT22;3648;50.614;13.830;2022-12-07T04:31:26;1.60;1.00
7214;DHT22;3648;50.614;13.830;2022-12-07T04:33:55;1.60;1.00
7214;DHT22;3648;50.614;13.830;2022-12-07T04:36:22;1.50;1.00
7214;DHT22;3648;50.614;13.830;2022-12-07T04:38:49;1.50;1.00
7214;DHT22;3648;50.614;13.830;2022-12-07T04:41:16;1.50;1.00
7214;DHT22;3648;50.614;13.830;2022-12-07T04:43:43;1.50;1.00
7214;DHT22;3648;50.614;13.830;2022-12-07T04:46:10;1.50;1.00
7214;DHT22;3648;50.614;13.830;2022-12-07T04:48:37;1.50;1.00
7214;DHT22;3648;50.614;13.830;2022-12-07T04:51:06;1.50;1.00
7214;DHT22;3648;50.614;13.830;2022-12-07T04:53:33;1.50;1.00
7214;DHT22;3648;50.614;13.830;2022-12-07T04:55:59;1.50;1.00
7214;DHT22;3648;50.614;13.830;2022-12-07T04:58:27;1.50;1.00
7214;DHT22;3648;50.614;13.830;2022-12-07T05:00:55;1.50;1.00
7214;DHT22;3648;50.614;13.830;2022-12-07T05:03:22;1.50;1.00
7214;DHT22;3648;50.614;13.830;2022-12-07T05:05:49;1.50;1.00
7214;DHT22;3648;50.614;13.830;2022-12-07T05:08:17;1.40;1.00
7214;DHT22;3648;50.614;13.830;2022-12-07T05:10:44;1.40;1.00
7214;DHT22;3648;50.614;13.830;2022-12-07T05:13:11;1.40;1.00
7214;DHT22;3648;50.614;13.830;2022-12-07T05:15:38;1.40;1.00
7214;DHT22;3648;50.614;13.830;2022-12-07T05:18:05;1.30;1.00
7214;DHT22;3648;50.614;13.830;2022-12-07T05:20:32;1.30;1.00
7214;DHT22;3648;50.614;13.830;2022-12-07T05:22:59;1.30;1.00
7214;DHT22;3648;50.614;13.830;2022-12-07T05:25:27;1.30;1.00
7214;DHT22;3648;50.614;13.830;2022-12-07T05:27:55;1.30;1.00
7214;DHT22;3648;50.614;13.830;2022-12-07T05:30:22;1.30;1.00
7214;DHT22;3648;50.614;13.830;2022-12-07T05:32:49;1.20;1.00
7214;DHT22;3648;50.614;13.830;2022-12-07T05:35:18;1.20;1.00
7214;DHT22;3648;50.614;13.830;2022-12-07T05:37:45;1.20;1.00
7214;DHT22;3648;50.614;13.830;2022-12-07T05:40:13;1.20;1.00
7214;DHT22;3648;50.614;13.830;2022-12-07T05:42:41;1.10;1.00
7214;DHT22;3648;50.614;13.830;2022-12-07T05:45:09;1.10;1.00
7214;DHT22;3648;50.614;13.830;2022-12-07T05:47:37;1.10;1.00
7214;DHT22;3648;50.614;13.830;2022-12-07T05:50:06;1.10;1.00
7214;DHT22;3648;50.614;13.830;2022-12-07T05:52:33;1.10;1.00
7214;DHT22;3648;50.614;13.830;2022-12-07T05:55:00;1.00;1.00
7214;DHT22;3648;50.614;13.830;2022-12-07T05:57:27;1.10;1.00
7214;DHT22;3648;50.614;13.830;2022-12-07T05:59:55;1.00;1.00
7214;DHT22;3648;50.614;13.830;2022-12-07T06:02:21;1.00;1.00
7214;DHT22;3648;50.614;13.830;2022-12-07T06:04:48;1.00;1.00
7214;DHT22;3648;50.614;13.830;2022-12-07T06:07:16;1.10;1.00
7214;DHT22;3648;50.614;13.830;2022-12-07T06:09:43;1.10;1.00
7214;DHT22;3648;50.614;13.830;2022-12-07T06:12:11;1.10;1.00
7214;DHT22;3648;50.614;13.830;2022-12-07T06:14:58;1.20;1.00
7214;DHT22;3648;50.614;13.830;2022-12-07T06:17:25;1.20;1.00
7214;DHT22;3648;50.614;13.830;2022-12-07T06:19:52;1.20;1.00
7214;DHT22;3648;50.614;13.830;2022-12-07T06:22:19;1.20;1.00
7214;DHT22;3648;50.614;13.830;2022-12-07T06:24:46;1.20;1.00
7214;DHT22;3648;50.614;13.830;2022-12-07T06:27:14;1.20;1.00
7214;DHT22;3648;50.614;13.830;2022-12-07T06:29:41;1.20;1.00
7214;DHT22;3648;50.614;13.830;2022-12-07T06:32:09;1.20;1.00
7214;DHT22;3648;50.614;13.830;2022-12-07T06:34:37;1.20;1.00
7214;DHT22;3648;50.614;13.830;2022-12-07T06:37:04;1.20;1.00
7214;DHT22;3648;50.614;13.830;2022-12-07T06:39:31;1.20;1.00
7214;DHT22;3648;50.614;13.830;2022-12-07T06:41:58;1.10;1.00
7214;DHT22;3648;50.614;13.830;2022-12-07T06:44:26;1.10;1.00
7214;DHT22;3648;50.614;13.830;2022-12-07T06:46:53;1.00;1.00
7214;DHT22;3648;50.614;13.830;2022-12-07T06:49:21;1.00;1.00
7214;DHT22;3648;50.614;13.830;2022-12-07T06:51:48;1.00;1.00
7214;DHT22;3648;50.614;13.830;2022-12-07T06:54:15;1.00;1.00
7214;DHT22;3648;50.614;13.830;2022-12-07T06:56:43;0.90;1.00
7214;DHT22;3648;50.614;13.830;2022-12-07T06:59:10;0.90;1.00
7214;DHT22;3648;50.614;13.830;2022-12-07T07:01:37;0.90;1.00
7214;DHT22;3648;50.614;13.830;2022-12-07T07:04:05;0.90;1.00
7214;DHT22;3648;50.614;13.830;2022-12-07T07:06:33;0.80;1.00
7214;DHT22;3648;50.614;13.830;2022-12-07T07:09:00;0.80;1.00
7214;DHT22;3648;50.614;13.830;2022-12-07T07:11:27;0.80;1.00
7214;DHT22;3648;50.614;13.830;2022-12-07T07:13:55;0.80;1.00
7214;DHT22;3648;50.614;13.830;2022-12-07T07:16:27;0.80;1.00
7214;DHT22;3648;50.614;13.830;2022-12-07T07:18:55;0.80;1.00
7214;DHT22;3648;50.614;13.830;2022-12-07T07:21:22;0.80;1.00
7214;DHT22;3648;50.614;13.830;2022-12-07T07:23:50;0.80;1.00
7214;DHT22;3648;50.614;13.830;2022-12-07T07:26:17;0.80;1.00
7214;DHT22;3648;50.614;13.830;2022-12-07T07:28:44;0.80;1.00
7214;DHT22;3648;50.614;13.830;2022-12-07T07:31:11;0.80;1.00
7214;DHT22;3648;50.614;13.830;2022-12-07T07:33:38;0.80;1.00
7214;DHT22;3648;50.614;13.830;2022-12-07T07:36:06;0.80;1.00
7214;DHT22;3648;50.614;13.830;2022-12-07T07:38:33;0.90;1.00
7214;DHT22;3648;50.614;13.830;2022-12-07T07:41:02;0.90;1.00
7214;DHT22;3648;50.614;13.830;2022-12-07T07:43:29;0.90;1.00
7214;DHT22;3648;50.614;13.830;2022-12-07T07:45:56;1.00;1.00
7214;DHT22;3648;50.614;13.830;2022-12-07T07:48:23;1.00;1.00
7214;DHT22;3648;50.614;13.830;2022-12-07T07:50:51;1.10;1.00
7214;DHT22;3648;50.614;13.830;2022-12-07T07:53:18;1.20;1.00
7214;DHT22;3648;50.614;13.830;2022-12-07T07:55:51;1.10;1.00
7214;DHT22;3648;50.614;13.830;2022-12-07T07:58:21;1.20;1.00
7214;DHT22;3648;50.614;13.830;2022-12-07T08:00:48;1.10;1.00
7214;DHT22;3648;50.614;13.830;2022-12-07T08:03:15;1.20;1.00
7214;DHT22;3648;50.614;13.830;2022-12-07T08:05:43;1.20;1.00
7214;DHT22;3648;50.614;13.830;2022-12-07T08:08:10;1.20;1.00
7214;DHT22;3648;50.614;13.830;2022-12-07T08:10:37;1.30;1.00
7214;DHT22;3648;50.614;13.830;2022-12-07T08:13:04;1.30;1.00
7214;DHT22;3648;50.614;13.830;2022-12-07T08:15:40;1.30;1.00
7214;DHT22;3648;50.614;13.830;2022-12-07T08:18:08;1.30;1.00
7214;DHT22;3648;50.614;13.830;2022-12-07T08:20:36;1.40;1.00
7214;DHT22;3648;50.614;13.830;2022-12-07T08:23:05;1.40;1.00
7214;DHT22;3648;50.614;13.830;2022-12-07T08:25:33;1.40;1.00
7214;DHT22;3648;50.614;13.830;2022-12-07T08:28:00;1.50;1.00
7214;DHT22;3648;50.614;13.830;2022-12-07T08:30:28;1.50;1.00
7214;DHT22;3648;50.614;13.830;2022-12-07T08:33:09;1.50;1.00
7214;DHT22;3648;50.614;13.830;2022-12-07T08:35:36;1.50;1.00
7214;DHT22;3648;50.614;13.830;2022-12-07T08:38:03;1.60;1.00
7214;DHT22;3648;50.614;13.830;2022-12-07T08:40:30;1.60;1.00
7214;DHT22;3648;50.614;13.830;2022-12-07T08:42:57;1.70;1.00
7214;DHT22;3648;50.614;13.830;2022-12-07T08:45:24;1.80;1.00
7214;DHT22;3648;50.614;13.830;2022-12-07T08:48:03;1.80;1.00
7214;DHT22;3648;50.614;13.830;2022-12-07T08:50:33;1.80;1.00
7214;DHT22;3648;50.614;13.830;2022-12-07T08:53:01;1.90;1.00
7214;DHT22;3648;50.614;13.830;2022-12-07T08:55:29;1.90;1.00
7214;DHT22;3648;50.614;13.830;2022-12-07T08:57:57;2.00;1.00
7214;DHT22;3648;50.614;13.830;2022-12-07T09:00:25;2.00;1.00
7214;DHT22;3648;50.614;13.830;2022-12-07T09:02:53;2.10;1.00
7214;DHT22;3648;50.614;13.830;2022-12-07T09:05:22;2.10;1.00
7214;DHT22;3648;50.614;13.830;2022-12-07T09:07:51;2.10;1.00
7214;DHT22;3648;50.614;13.830;2022-12-07T09:10:21;2.20;1.00
7214;DHT22;3648;50.614;13.830;2022-12-07T09:12:48;2.10;1.00
7214;DHT22;3648;50.614;13.830;2022-12-07T09:15:15;2.20;1.00
7214;DHT22;3648;50.614;13.830;2022-12-07T09:17:42;2.20;1.00
7214;DHT22;3648;50.614;13.830;2022-12-07T09:20:10;2.30;1.00
7214;DHT22;3648;50.614;13.830;2022-12-07T09:22:39;2.30;1.00
7214;DHT22;3648;50.614;13.830;2022-12-07T09:25:06;2.40;1.00
7214;DHT22;3648;50.614;13.830;2022-12-07T09:27:33;2.50;1.00
7214;DHT22;3648;50.614;13.830;2022-12-07T09:30:00;2.50;1.00
7214;DHT22;3648;50.614;13.830;2022-12-07T09:32:27;2.50;1.00
7214;DHT22;3648;50.614;13.830;2022-12-07T09:34:55;2.50;1.00
7214;DHT22;3648;50.614;13.830;2022-12-07T09:37:22;2.60;1.00
7214;DHT22;3648;50.614;13.830;2022-12-07T09:39:50;2.70;1.00
7214;DHT22;3648;50.614;13.830;2022-12-07T09:42:27;2.90;1.00
7214;DHT22;3648;50.614;13.830;2022-12-07T09:44:55;2.90;1.00
7214;DHT22;3648;50.614;13.830;2022-12-07T09:47:23;3.10;1.00
7214;DHT22;3648;50.614;13.830;2022-12-07T09:49:51;3.30;1.00
7214;DHT22;3648;50.614;13.830;2022-12-07T09:52:19;3.50;1.00
7214;DHT22;3648;50.614;13.830;2022-12-07T09:54:50;3.80;1.00
7214;DHT22;3648;50.614;13.830;2022-12-07T09:57:21;4.00;1.00
7214;DHT22;3648;50.614;13.830;2022-12-07T09:59:52;4.10;1.00
7214;DHT22;3648;50.614;13.830;2022-12-07T10:02:28;4.30;1.00
7214;DHT22;3648;50.614;13.830;2022-12-07T10:04:59;4.40;1.00
7214;DHT22;3648;50.614;13.830;2022-12-07T10:07:26;4.30;1.00
7214;DHT22;3648;50.614;13.830;2022-12-07T10:09:55;4.40;1.00
7214;DHT22;3648;50.614;13.830;2022-12-07T10:12:22;4.30;1.00
7214;DHT22;3648;50.614;13.830;2022-12-07T10:14:55;4.20;1.00
7214;DHT22;3648;50.614;13.830;2022-12-07T10:17:31;4.30;1.00
7214;DHT22;3648;50.614;13.830;2022-12-07T10:20:16;4.20;1.00
7214;DHT22;3648;50.614;13.830;2022-12-07T10:22:58;4.30;1.00
7214;DHT22;3648;50.614;13.830;2022-12-07T10:25:29;4.30;1.00
7214;DHT22;3648;50.614;13.830;2022-12-07T10:27:58;4.40;1.00
7214;DHT22;3648;50.614;13.830;2022-12-07T10:30:26;4.30;1.00
7214;DHT22;3648;50.614;13.830;2022-12-07T10:32:53;4.30;1.00
7214;DHT22;3648;50.614;13.830;2022-12-07T10:35:24;4.30;1.00
7214;DHT22;3648;50.614;13.830;2022-12-07T10:37:52;4.40;1.00
7214;DHT22;3648;50.614;13.830;2022-12-07T10:40:30;4.50;1.00
7214;DHT22;3648;50.614;13.830;2022-12-07T10:43:18;4.50;1.00
7214;DHT22;3648;50.614;13.830;2022-12-07T10:46:14;4.40;1.00
7214;DHT22;3648;50.614;13.830;2022-12-07T10:48:54;4.40;1.00
7214;DHT22;3648;50.614;13.830;2022-12-07T10:51:29;4.40;1.00
7214;DHT22;3648;50.614;13.830;2022-12-07T10:54:08;4.30;1.00
7214;DHT22;3648;50.614;13.830;2022-12-07T10:57:00;4.20;1.00
7214;DHT22;3648;50.614;13.830;2022-12-07T10:59:55;4.30;1.00
7214;DHT22;3648;50.614;13.830;2022-12-07T11:02:36;4.50;1.00
7214;DHT22;3648;50.614;13.830;2022-12-07T11:05:17;4.60;1.00
7214;DHT22;3648;50.614;13.830;2022-12-07T11:07:56;4.60;1.00
7214;DHT22;3648;50.614;13.830;2022-12-07T11:10:31;4.70;1.00
7214;DHT22;3648;50.614;13.830;2022-12-07T11:13:20;4.70;1.00
7214;DHT22;3648;50.614;13.830;2022-12-07T11:16:01;4.80;1.00
7214;DHT22;3648;50.614;13.830;2022-12-07T11:18:34;4.90;1.00
7214;DHT22;3648;50.614;13.830;2022-12-07T11:21:09;5.00;1.00
7214;DHT22;3648;50.614;13.830;2022-12-07T11:23:47;4.90;1.00
7214;DHT22;3648;50.614;13.830;2022-12-07T11:26:22;4.90;1.00
7214;DHT22;3648;50.614;13.830;2022-12-07T11:29:05;4.90;1.00
7214;DHT22;3648;50.614;13.830;2022-12-07T11:31:53;4.90;1.00
7214;DHT22;3648;50.614;13.830;2022-12-07T11:34:31;4.80;1.00
7214;DHT22;3648;50.614;13.830;2022-12-07T11:37:07;4.90;1.00
7214;DHT22;3648;50.614;13.830;2022-12-07T11:39:43;4.90;1.00
7214;DHT22;3648;50.614;13.830;2022-12-07T11:42:15;4.90;1.00
7214;DHT22;3648;50.614;13.830;2022-12-07T11:44:59;4.70;1.00
7214;DHT22;3648;50.614;13.830;2022-12-07T11:47:34;4.70;1.00
7214;DHT22;3648;50.614;13.830;2022-12-07T11:50:14;4.60;1.00
7214;DHT22;3648;50.614;13.830;2022-12-07T11:52:47;4.50;1.00
7214;DHT22;3648;50.614;13.830;2022-12-07T11:55:19;4.50;1.00
7214;DHT22;3648;50.614;13.830;2022-12-07T11:57:54;4.40;1.00
7214;DHT22;3648;50.614;13.830;2022-12-07T12:00:24;4.40;1.00
7214;DHT22;3648;50.614;13.830;2022-12-07T12:02:57;4.30;1.00
7214;DHT22;3648;50.614;13.830;2022-12-07T12:05:41;4.40;1.00
7214;DHT22;3648;50.614;13.830;2022-12-07T12:14:19;4.20;1.00
7214;DHT22;3648;50.614;13.830;2022-12-07T12:19:42;4.20;1.00
7214;DHT22;3648;50.614;13.830;2022-12-07T12:22:28;4.10;1.00
7214;DHT22;3648;50.614;13.830;2022-12-07T12:25:07;4.10;1.00
7214;DHT22;3648;50.614;13.830;2022-12-07T12:30:32;4.00;1.00
7214;DHT22;3648;50.614;13.830;2022-12-07T12:33:36;3.90;1.00
7214;DHT22;3648;50.614;13.830;2022-12-07T12:39:13;3.60;1.00
7214;DHT22;3648;50.614;13.830;2022-12-07T12:42:01;3.60;1.00
7214;DHT22;3648;50.614;13.830;2022-12-07T12:44:46;3.70;1.00
7214;DHT22;3648;50.614;13.830;2022-12-07T12:47:57;3.60;1.00
7214;DHT22;3648;50.614;13.830;2022-12-07T12:50:30;3.60;1.00
7214;DHT22;3648;50.614;13.830;2022-12-07T12:53:16;3.50;1.00
7214;DHT22;3648;50.614;13.830;2022-12-07T12:59:19;3.50;1.00
7214;DHT22;3648;50.614;13.830;2022-12-07T13:01:51;3.50;1.00
7214;DHT22;3648;50.614;13.830;2022-12-07T13:04:49;3.50;1.00
7214;DHT22;3648;50.614;13.830;2022-12-07T13:10:39;3.40;1.00
7214;DHT22;3648;50.614;13.830;2022-12-07T13:13:34;3.40;1.00
7214;DHT22;3648;50.614;13.830;2022-12-07T13:22:47;3.50;1.00
7214;DHT22;3648;50.614;13.830;2022-12-07T13:25:30;3.50;1.00
7214;DHT22;3648;50.614;13.830;2022-12-07T13:28:02;3.60;1.00
7214;DHT22;3648;50.614;13.830;2022-12-07T13:30:43;3.70;1.00
7214;DHT22;3648;50.614;13.830;2022-12-07T13:33:12;3.60;1.00
7214;DHT22;3648;50.614;13.830;2022-12-07T13:35:40;3.60;1.00
7214;DHT22;3648;50.614;13.830;2022-12-07T13:38:23;3.70;1.00
7214;DHT22;3648;50.614;13.830;2022-12-07T13:41:12;3.70;1.00
7214;DHT22;3648;50.614;13.830;2022-12-07T13:43:43;3.60;1.00
7214;DHT22;3648;50.614;13.830;2022-12-07T13:46:11;3.60;1.00
7214;DHT22;3648;50.614;13.830;2022-12-07T13:48:44;3.60;1.00
7214;DHT22;3648;50.614;13.830;2022-12-07T13:51:18;3.60;1.00
7214;DHT22;3648;50.614;13.830;2022-12-07T13:53:53;3.70;1.00
7214;DHT22;3648;50.614;13.830;2022-12-07T13:56:28;3.80;1.00
7214;DHT22;3648;50.614;13.830;2022-12-07T13:58:58;3.80;1.00
7214;DHT22;3648;50.614;13.830;2022-12-07T14:01:26;3.80;1.00
7214;DHT22;3648;50.614;13.830;2022-12-07T14:03:54;3.80;1.00
7214;DHT22;3648;50.614;13.830;2022-12-07T14:06:25;3.80;1.00
7214;DHT22;3648;50.614;13.830;2022-12-07T14:09:18;3.80;1.00
7214;DHT22;3648;50.614;13.830;2022-12-07T14:11:48;3.80;1.00
7214;DHT22;3648;50.614;13.830;2022-12-07T14:14:19;3.80;1.00
7214;DHT22;3648;50.614;13.830;2022-12-07T14:17:00;3.80;1.00
7214;DHT22;3648;50.614;13.830;2022-12-07T14:19:48;3.70;1.00
7214;DHT22;3648;50.614;13.830;2022-12-07T14:22:28;3.70;1.00
7214;DHT22;3648;50.614;13.830;2022-12-07T14:25:09;3.80;1.00
7214;DHT22;3648;50.614;13.830;2022-12-07T14:27:39;3.70;1.00
7214;DHT22;3648;50.614;13.830;2022-12-07T14:30:16;3.70;1.00
7214;DHT22;3648;50.614;13.830;2022-12-07T14:32:43;3.70;1.00
7214;DHT22;3648;50.614;13.830;2022-12-07T14:35:16;3.70;1.00
7214;DHT22;3648;50.614;13.830;2022-12-07T14:37:45;3.70;1.00
7214;DHT22;3648;50.614;13.830;2022-12-07T14:40:16;3.70;1.00
7214;DHT22;3648;50.614;13.830;2022-12-07T14:42:44;3.70;1.00
7214;DHT22;3648;50.614;13.830;2022-12-07T14:45:14;3.60;1.00
7214;DHT22;3648;50.614;13.830;2022-12-07T14:47:43;3.60;1.00
7214;DHT22;3648;50.614;13.830;2022-12-07T14:50:12;3.60;1.00
7214;DHT22;3648;50.614;13.830;2022-12-07T14:52:41;3.60;1.00
7214;DHT22;3648;50.614;13.830;2022-12-07T14:55:18;3.60;1.00
7214;DHT22;3648;50.614;13.830;2022-12-07T14:57:47;3.60;1.00
7214;DHT22;3648;50.614;13.830;2022-12-07T15:00:16;3.50;1.00
7214;DHT22;3648;50.614;13.830;2022-12-07T15:02:43;3.50;1.00
7214;DHT22;3648;50.614;13.830;2022-12-07T15:05:10;3.40;1.00
7214;DHT22;3648;50.614;13.830;2022-12-07T15:07:39;3.40;1.00
7214;DHT22;3648;50.614;13.830;2022-12-07T15:10:09;3.40;1.00
7214;DHT22;3648;50.614;13.830;2022-12-07T15:12:42;3.40;1.00
7214;DHT22;3648;50.614;13.830;2022-12-07T15:15:09;3.30;1.00
7214;DHT22;3648;50.614;13.830;2022-12-07T15:17:37;3.40;1.00
7214;DHT22;3648;50.614;13.830;2022-12-07T15:20:05;3.30;1.00
7214;DHT22;3648;50.614;13.830;2022-12-07T15:22:32;3.40;1.00
7214;DHT22;3648;50.614;13.830;2022-12-07T15:25:02;3.40;1.00
7214;DHT22;3648;50.614;13.830;2022-12-07T15:27:30;3.40;1.00
7214;DHT22;3648;50.614;13.830;2022-12-07T15:29:58;3.30;1.00
7214;DHT22;3648;50.614;13.830;2022-12-07T15:32:25;3.30;1.00
7214;DHT22;3648;50.614;13.830;2022-12-07T15:34:54;3.30;1.00
7214;DHT22;3648;50.614;13.830;2022-12-07T15:37:21;3.30;1.00
7214;DHT22;3648;50.614;13.830;2022-12-07T15:39:49;3.30;1.00
7214;DHT22;3648;50.614;13.830;2022-12-07T15:42:16;3.30;1.00
7214;DHT22;3648;50.614;13.830;2022-12-07T15:44:43;3.30;1.00
7214;DHT22;3648;50.614;13.830;2022-12-07T15:47:29;3.30;1.00
7214;DHT22;3648;50.614;13.830;2022-12-07T15:49:56;3.30;1.00
7214;DHT22;3648;50.614;13.830;2022-12-07T15:52:23;3.30;1.00
7214;DHT22;3648;50.614;13.830;2022-12-07T15:54:50;3.30;1.00
7214;DHT22;3648;50.614;13.830;2022-12-07T15:57:19;3.30;1.00
7214;DHT22;3648;50.614;13.830;2022-12-07T15:59:47;3.30;1.00
7214;DHT22;3648;50.614;13.830;2022-12-07T16:02:14;3.30;1.00
7214;DHT22;3648;50.614;13.830;2022-12-07T16:04:42;3.20;1.00
7214;DHT22;3648;50.614;13.830;2022-12-07T16:07:10;3.20;1.00
7214;DHT22;3648;50.614;13.830;2022-12-07T16:09:41;3.20;1.00
7214;DHT22;3648;50.614;13.830;2022-12-07T16:12:08;3.20;1.00
7214;DHT22;3648;50.614;13.830;2022-12-07T16:14:35;3.20;1.00
7214;DHT22;3648;50.614;13.830;2022-12-07T16:17:02;3.20;1.00
7214;DHT22;3648;50.614;13.830;2022-12-07T16:19:30;3.10;1.00
7214;DHT22;3648;50.614;13.830;2022-12-07T16:21:59;3.10;1.00
7214;DHT22;3648;50.614;13.830;2022-12-07T16:24:27;3.10;1.00
7214;DHT22;3648;50.614;13.830;2022-12-07T16:26:54;3.10;1.00
7214;DHT22;3648;50.614;13.830;2022-12-07T16:29:22;3.10;1.00
7214;DHT22;3648;50.614;13.830;2022-12-07T16:31:50;3.10;1.00
7214;DHT22;3648;50.614;13.830;2022-12-07T16:34:18;3.00;1.00
7214;DHT22;3648;50.614;13.830;2022-12-07T16:36:45;3.00;1.00
7214;DHT22;3648;50.614;13.830;2022-12-07T16:39:14;2.90;1.00
7214;DHT22;3648;50.614;13.830;2022-12-07T16:41:44;2.90;1.00
7214;DHT22;3648;50.614;13.830;2022-12-07T16:44:12;2.80;1.00
7214;DHT22;3648;50.614;13.830;2022-12-07T16:46:40;2.80;1.00
7214;DHT22;3648;50.614;13.830;2022-12-07T16:49:08;2.80;1.00
7214;DHT22;3648;50.614;13.830;2022-12-07T16:51:37;2.70;1.00
7214;DHT22;3648;50.614;13.830;2022-12-07T16:54:04;2.70;1.00
7214;DHT22;3648;50.614;13.830;2022-12-07T16:56:34;2.70;1.00
7214;DHT22;3648;50.614;13.830;2022-12-07T16:59:06;2.70;1.00
7214;DHT22;3648;50.614;13.830;2022-12-07T17:01:33;2.60;1.00
7214;DHT22;3648;50.614;13.830;2022-12-07T17:04:01;2.60;1.00
7214;DHT22;3648;50.614;13.830;2022-12-07T17:06:30;2.60;1.00
7214;DHT22;3648;50.614;13.830;2022-12-07T17:08:57;2.60;1.00